sensor_id;sensor_type;location;lat;lon;timestamp;pressure;altitude;pressure_sealevel;temperature;humidity
54546;BME280;40444;45.184;9.850;2024-02-26T00:00:05;100037.34;;;9.26;100.00
54546;BME280;40444;45.184;9.850;2024-02-26T00:02:37;100035.34;;;9.47;100.00
54546;BME280;40444;45.184;9.850;2024-02-26T00:05:06;100036.47;;;9.45;100.00
54546;BME280;40444;45.184;9.850;2024-02-26T00:07:35;100036.31;;;9.46;100.00
54546;BME280;40444;45.184;9.850;2024-02-26T00:10:04;100024.41;;;9.21;100.00
54546;BME280;40444;45.184;9.850;2024-02-26T00:12:33;100031.72;;;9.29;100.00
54546;BME280;40444;45.184;9.850;2024-02-26T00:15:02;100026.47;;;9.37;100.00
54546;BME280;40444;45.184;9.850;2024-02-26T00:17:31;100025.06;;;9.33;100.00
54546;BME280;40444;45.184;9.850;2024-02-26T00:19:59;100014.97;;;9.27;100.00
54546;BME280;40444;45.184;9.850;2024-02-26T00:22:29;100019.34;;;9.18;100.00
54546;BME280;40444;45.184;9.850;2024-02-26T00:24:57;100015.81;;;9.18;100.00
54546;BME280;40444;45.184;9.850;2024-02-26T00:27:26;100018.66;;;9.06;100.00
54546;BME280;40444;45.184;9.850;2024-02-26T00:29:55;100008.13;;;8.85;100.00
54546;BME280;40444;45.184;9.850;2024-02-26T00:32:23;100010.47;;;8.79;100.00
54546;BME280;40444;45.184;9.850;2024-02-26T00:34:52;100017.94;;;8.95;100.00
54546;BME280;40444;45.184;9.850;2024-02-26T00:37:21;100005.44;;;8.76;100.00
54546;BME280;40444;45.184;9.850;2024-02-26T00:39:49;99995.44;;;8.88;100.00
54546;BME280;40444;45.184;9.850;2024-02-26T00:42:18;99991.22;;;9.04;100.00
54546;BME280;40444;45.184;9.850;2024-02-26T00:44:46;99979.97;;;9.01;100.00
54546;BME280;40444;45.184;9.850;2024-02-26T00:47:15;99991.78;;;9.08;100.00
54546;BME280;40444;45.184;9.850;2024-02-26T00:49:43;99984.34;;;8.92;100.00
54546;BME280;40444;45.184;9.850;2024-02-26T00:52:13;99990.50;;;9.12;100.00
54546;BME280;40444;45.184;9.850;2024-02-26T00:54:41;99988.41;;;9.06;100.00
54546;BME280;40444;45.184;9.850;2024-02-26T00:57:10;99970.44;;;8.89;100.00
54546;BME280;40444;45.184;9.850;2024-02-26T00:59:39;99977.59;;;8.98;100.00
54546;BME280;40444;45.184;9.850;2024-02-26T01:02:08;99964.75;;;9.21;100.00
54546;BME280;40444;45.184;9.850;2024-02-26T01:04:36;99968.84;;;9.25;100.00
54546;BME280;40444;45.184;9.850;2024-02-26T01:07:05;99957.03;;;9.08;100.00
54546;BME280;40444;45.184;9.850;2024-02-26T01:09:34;99945.63;;;9.06;100.00
54546;BME280;40444;45.184;9.850;2024-02-26T01:12:03;99955.31;;;9.26;100.00
54546;BME280;40444;45.184;9.850;2024-02-26T01:14:32;99959.69;;;9.18;100.00
54546;BME280;40444;45.184;9.850;2024-02-26T01:17:00;99951.94;;;9.15;100.00
54546;BME280;40444;45.184;9.850;2024-02-26T01:19:29;99947.31;;;9.17;100.00
54546;BME280;40444;45.184;9.850;2024-02-26T01:21:58;99946.16;;;9.29;100.00
54546;BME280;40444;45.184;9.850;2024-02-26T01:24:26;99945.88;;;9.22;100.00
54546;BME280;40444;45.184;9.850;2024-02-26T01:26:56;99943.09;;;9.14;100.00
54546;BME280;40444;45.184;9.850;2024-02-26T01:29:24;99941.66;;;9.29;100.00
54546;BME280;40444;45.184;9.850;2024-02-26T01:31:53;99949.19;;;9.06;100.00
54546;BME280;40444;45.184;9.850;2024-02-26T01:34:21;99944.91;;;9.23;100.00
54546;BME280;40444;45.184;9.850;2024-02-26T01:36:50;99942.81;;;9.17;100.00
54546;BME280;40444;45.184;9.850;2024-02-26T01:39:18;99946.88;;;9.21;100.00
54546;BME280;40444;45.184;9.850;2024-02-26T01:41:46;99951.50;;;9.29;100.00
54546;BME280;40444;45.184;9.850;2024-02-26T01:44:15;99943.63;;;9.27;100.00
54546;BME280;40444;45.184;9.850;2024-02-26T01:46:43;99950.88;;;9.45;100.00
54546;BME280;40444;45.184;9.850;2024-02-26T01:49:12;99954.03;;;9.30;100.00
54546;BME280;40444;45.184;9.850;2024-02-26T01:51:43;99952.63;;;9.26;100.00
54546;BME280;40444;45.184;9.850;2024-02-26T01:54:12;99948.38;;;9.43;100.00
54546;BME280;40444;45.184;9.850;2024-02-26T01:56:41;99948.66;;;9.40;100.00
54546;BME280;40444;45.184;9.850;2024-02-26T01:59:10;99934.69;;;9.56;100.00
54546;BME280;40444;45.184;9.850;2024-02-26T02:01:40;99939.47;;;9.52;100.00
54546;BME280;40444;45.184;9.850;2024-02-26T02:04:14;99930.34;;;9.45;100.00
54546;BME280;40444;45.184;9.850;2024-02-26T02:06:45;99930.50;;;9.44;100.00
54546;BME280;40444;45.184;9.850;2024-02-26T02:09:15;99930.44;;;9.53;100.00
54546;BME280;40444;45.184;9.850;2024-02-26T02:11:43;99930.44;;;9.53;100.00
54546;BME280;40444;45.184;9.850;2024-02-26T02:14:12;99925.66;;;9.57;100.00
54546;BME280;40444;45.184;9.850;2024-02-26T02:16:41;99922.81;;;9.58;100.00
54546;BME280;40444;45.184;9.850;2024-02-26T02:19:10;99928.50;;;9.55;100.00
54546;BME280;40444;45.184;9.850;2024-02-26T02:21:38;99920.03;;;9.60;100.00
54546;BME280;40444;45.184;9.850;2024-02-26T02:24:07;99915.25;;;9.54;100.00
54546;BME280;40444;45.184;9.850;2024-02-26T02:26:35;99909.44;;;9.58;100.00
54546;BME280;40444;45.184;9.850;2024-02-26T02:29:06;99906.94;;;9.57;100.00
54546;BME280;40444;45.184;9.850;2024-02-26T02:31:35;99905.50;;;9.62;100.00
54546;BME280;40444;45.184;9.850;2024-02-26T02:34:03;99912.97;;;9.59;100.00
54546;BME280;40444;45.184;9.850;2024-02-26T02:36:32;99902.88;;;9.53;100.00
54546;BME280;40444;45.184;9.850;2024-02-26T02:39:01;99901.88;;;9.54;100.00
54546;BME280;40444;45.184;9.850;2024-02-26T02:41:29;99905.81;;;9.50;100.00
54546;BME280;40444;45.184;9.850;2024-02-26T02:43:58;99899.34;;;9.52;100.00
54546;BME280;40444;45.184;9.850;2024-02-26T02:46:26;99904.66;;;9.62;100.00
54546;BME280;40444;45.184;9.850;2024-02-26T02:48:55;99895.22;;;9.58;100.00
54546;BME280;40444;45.184;9.850;2024-02-26T02:51:24;99897.50;;;9.53;100.00
54546;BME280;40444;45.184;9.850;2024-02-26T02:53:52;99891.88;;;9.56;100.00
54546;BME280;40444;45.184;9.850;2024-02-26T02:56:21;99900.13;;;9.62;100.00
54546;BME280;40444;45.184;9.850;2024-02-26T02:58:50;99905.16;;;9.48;100.00
54546;BME280;40444;45.184;9.850;2024-02-26T03:01:18;99911.34;;;9.48;100.00
54546;BME280;40444;45.184;9.850;2024-02-26T03:03:47;99909.09;;;9.44;100.00
54546;BME280;40444;45.184;9.850;2024-02-26T03:06:15;99909.66;;;9.47;100.00
54546;BME280;40444;45.184;9.850;2024-02-26T03:08:44;99902.75;;;9.45;100.00
54546;BME280;40444;45.184;9.850;2024-02-26T03:11:14;99900.47;;;9.50;100.00
54546;BME280;40444;45.184;9.850;2024-02-26T03:13:43;99895.00;;;9.51;100.00
54546;BME280;40444;45.184;9.850;2024-02-26T03:16:12;99904.59;;;9.44;100.00
54546;BME280;40444;45.184;9.850;2024-02-26T03:18:40;99902.25;;;9.59;100.00
54546;BME280;40444;45.184;9.850;2024-02-26T03:21:09;99902.81;;;9.62;100.00
54546;BME280;40444;45.184;9.850;2024-02-26T03:23:38;99904.75;;;9.43;100.00
54546;BME280;40444;45.184;9.850;2024-02-26T03:26:06;99906.38;;;9.53;100.00
54546;BME280;40444;45.184;9.850;2024-02-26T03:28:35;99904.00;;;9.50;100.00
54546;BME280;40444;45.184;9.850;2024-02-26T03:31:03;99894.41;;;9.57;100.00
54546;BME280;40444;45.184;9.850;2024-02-26T03:33:32;99896.06;;;9.58;100.00
54546;BME280;40444;45.184;9.850;2024-02-26T03:36:00;99900.75;;;9.56;100.00
54546;BME280;40444;45.184;9.850;2024-02-26T03:38:30;99891.06;;;9.46;100.00
54546;BME280;40444;45.184;9.850;2024-02-26T03:40:59;99888.38;;;9.55;100.00
54546;BME280;40444;45.184;9.850;2024-02-26T03:43:27;99892.00;;;9.54;100.00
54546;BME280;40444;45.184;9.850;2024-02-26T03:45:56;99889.59;;;9.61;100.00
54546;BME280;40444;45.184;9.850;2024-02-26T03:48:24;99887.22;;;9.58;100.00
54546;BME280;40444;45.184;9.850;2024-02-26T03:50:52;99888.94;;;9.49;100.00
54546;BME280;40444;45.184;9.850;2024-02-26T03:53:21;99880.59;;;9.62;100.00
54546;BME280;40444;45.184;9.850;2024-02-26T03:55:49;99885.09;;;9.61;100.00
54546;BME280;40444;45.184;9.850;2024-02-26T03:58:19;99883.31;;;9.52;100.00
54546;BME280;40444;45.184;9.850;2024-02-26T04:00:48;99886.88;;;9.71;100.00
54546;BME280;40444;45.184;9.850;2024-02-26T04:03:16;99878.34;;;9.57;100.00
54546;BME280;40444;45.184;9.850;2024-02-26T04:05:45;99877.16;;;9.42;100.00
54546;BME280;40444;45.184;9.850;2024-02-26T04:08:13;99884.75;;;9.47;100.00
54546;BME280;40444;45.184;9.850;2024-02-26T04:10:41;99885.72;;;9.46;100.00
54546;BME280;40444;45.184;9.850;2024-02-26T04:13:10;99888.78;;;9.51;100.00
54546;BME280;40444;45.184;9.850;2024-02-26T04:15:38;99881.63;;;9.51;100.00
54546;BME280;40444;45.184;9.850;2024-02-26T04:18:07;99887.00;;;9.42;100.00
54546;BME280;40444;45.184;9.850;2024-02-26T04:20:36;99880.88;;;9.59;100.00
54546;BME280;40444;45.184;9.850;2024-02-26T04:23:04;99895.94;;;9.60;100.00
54546;BME280;40444;45.184;9.850;2024-02-26T04:25:33;99888.84;;;9.41;100.00
54546;BME280;40444;45.184;9.850;2024-02-26T04:28:02;99890.94;;;9.47;100.00
54546;BME280;40444;45.184;9.850;2024-02-26T04:30:31;99885.59;;;9.47;100.00
54546;BME280;40444;45.184;9.850;2024-02-26T04:32:59;99891.16;;;9.54;100.00
54546;BME280;40444;45.184;9.850;2024-02-26T04:35:28;99898.34;;;9.53;100.00
54546;BME280;40444;45.184;9.850;2024-02-26T04:37:57;99904.09;;;9.58;100.00
54546;BME280;40444;45.184;9.850;2024-02-26T04:40:26;99910.44;;;9.57;100.00
54546;BME280;40444;45.184;9.850;2024-02-26T04:42:54;99920.94;;;9.69;100.00
54546;BME280;40444;45.184;9.850;2024-02-26T04:45:23;99915.28;;;9.72;100.00
54546;BME280;40444;45.184;9.850;2024-02-26T04:47:51;99905.53;;;9.80;100.00
54546;BME280;40444;45.184;9.850;2024-02-26T04:50:20;99914.47;;;9.71;100.00
54546;BME280;40444;45.184;9.850;2024-02-26T04:52:48;99912.78;;;9.70;100.00
54546;BME280;40444;45.184;9.850;2024-02-26T04:55:17;99914.31;;;9.73;100.00
54546;BME280;40444;45.184;9.850;2024-02-26T04:57:45;99921.88;;;9.77;100.00
54546;BME280;40444;45.184;9.850;2024-02-26T05:00:14;99919.16;;;9.59;100.00
54546;BME280;40444;45.184;9.850;2024-02-26T05:02:43;99920.47;;;9.55;100.00
54546;BME280;40444;45.184;9.850;2024-02-26T05:05:12;99915.53;;;9.51;100.00
54546;BME280;40444;45.184;9.850;2024-02-26T05:07:41;99911.69;;;9.63;100.00
54546;BME280;40444;45.184;9.850;2024-02-26T05:10:13;99911.69;;;9.63;100.00
54546;BME280;40444;45.184;9.850;2024-02-26T05:12:42;99912.28;;;9.57;100.00
54546;BME280;40444;45.184;9.850;2024-02-26T05:15:10;99906.81;;;9.49;100.00
54546;BME280;40444;45.184;9.850;2024-02-26T05:17:39;99909.66;;;9.47;100.00
54546;BME280;40444;45.184;9.850;2024-02-26T05:20:08;99903.31;;;9.48;100.00
54546;BME280;40444;45.184;9.850;2024-02-26T05:22:36;99897.28;;;9.36;100.00
54546;BME280;40444;45.184;9.850;2024-02-26T05:25:05;99891.44;;;9.23;100.00
54546;BME280;40444;45.184;9.850;2024-02-26T05:27:34;99904.75;;;9.43;100.00
54546;BME280;40444;45.184;9.850;2024-02-26T05:30:02;99901.88;;;9.17;100.00
54546;BME280;40444;45.184;9.850;2024-02-26T05:32:31;99897.19;;;9.28;100.00
54546;BME280;40444;45.184;9.850;2024-02-26T05:35:00;99896.25;;;9.20;100.00
54546;BME280;40444;45.184;9.850;2024-02-26T05:37:30;99895.53;;;9.18;100.00
54546;BME280;40444;45.184;9.850;2024-02-26T05:39:59;99888.53;;;9.17;100.00
54546;BME280;40444;45.184;9.850;2024-02-26T05:42:28;99893.72;;;9.18;100.00
54546;BME280;40444;45.184;9.850;2024-02-26T05:44:56;99887.72;;;9.06;100.00
54546;BME280;40444;45.184;9.850;2024-02-26T05:47:26;99898.50;;;9.15;100.00
54546;BME280;40444;45.184;9.850;2024-02-26T05:49:54;99892.06;;;9.07;100.00
54546;BME280;40444;45.184;9.850;2024-02-26T05:52:23;99894.59;;;9.09;100.00
54546;BME280;40444;45.184;9.850;2024-02-26T05:54:53;99894.44;;;9.10;100.00
54546;BME280;40444;45.184;9.850;2024-02-26T05:57:22;99897.31;;;8.90;100.00
54546;BME280;40444;45.184;9.850;2024-02-26T05:59:50;99895.91;;;8.85;100.00
54546;BME280;40444;45.184;9.850;2024-02-26T06:02:19;99904.44;;;9.08;100.00
54546;BME280;40444;45.184;9.850;2024-02-26T06:04:48;99897.97;;;9.01;100.00
54546;BME280;40444;45.184;9.850;2024-02-26T06:07:16;99895.31;;;8.92;100.00
54546;BME280;40444;45.184;9.850;2024-02-26T06:09:45;99905.00;;;8.93;100.00
54546;BME280;40444;45.184;9.850;2024-02-26T06:12:13;99907.44;;;8.86;100.00
54546;BME280;40444;45.184;9.850;2024-02-26T06:14:43;99913.22;;;8.81;100.00
54546;BME280;40444;45.184;9.850;2024-02-26T06:17:11;99909.94;;;8.88;100.00
54546;BME280;40444;45.184;9.850;2024-02-26T06:19:40;99915.69;;;9.12;100.00
54546;BME280;40444;45.184;9.850;2024-02-26T06:22:08;99909.09;;;9.06;100.00
54546;BME280;40444;45.184;9.850;2024-02-26T06:24:37;99922.56;;;9.05;100.00
54546;BME280;40444;45.184;9.850;2024-02-26T06:27:07;99915.16;;;8.99;100.00
54546;BME280;40444;45.184;9.850;2024-02-26T06:29:36;99912.00;;;9.13;100.00
54546;BME280;40444;45.184;9.850;2024-02-26T06:32:05;99910.66;;;8.90;100.00
54546;BME280;40444;45.184;9.850;2024-02-26T06:34:33;99907.41;;;8.96;100.00
54546;BME280;40444;45.184;9.850;2024-02-26T06:37:03;99908.38;;;9.04;100.00
54546;BME280;40444;45.184;9.850;2024-02-26T06:39:31;99912.56;;;9.17;100.00
54546;BME280;40444;45.184;9.850;2024-02-26T06:42:00;99912.81;;;9.23;100.00
54546;BME280;40444;45.184;9.850;2024-02-26T06:44:29;99915.25;;;9.17;100.00
54546;BME280;40444;45.184;9.850;2024-02-26T06:47:00;99905.72;;;9.04;100.00
54546;BME280;40444;45.184;9.850;2024-02-26T06:49:28;99912.72;;;9.05;100.00
54546;BME280;40444;45.184;9.850;2024-02-26T06:51:58;99910.38;;;8.93;100.00
54546;BME280;40444;45.184;9.850;2024-02-26T06:54:26;99913.88;;;9.03;100.00
54546;BME280;40444;45.184;9.850;2024-02-26T06:56:55;99903.22;;;8.83;100.00
54546;BME280;40444;45.184;9.850;2024-02-26T06:59:23;99918.25;;;8.75;100.00
54546;BME280;40444;45.184;9.850;2024-02-26T07:01:53;99913.72;;;9.04;100.00
54546;BME280;40444;45.184;9.850;2024-02-26T07:04:22;99915.56;;;9.04;100.00
54546;BME280;40444;45.184;9.850;2024-02-26T07:06:51;99906.28;;;8.98;100.00
54546;BME280;40444;45.184;9.850;2024-02-26T07:09:19;99902.03;;;9.05;100.00
54546;BME280;40444;45.184;9.850;2024-02-26T07:11:48;99914.59;;;8.85;100.00
54546;BME280;40444;45.184;9.850;2024-02-26T07:14:17;99917.13;;;8.87;100.00
54546;BME280;40444;45.184;9.850;2024-02-26T07:16:45;99914.88;;;8.92;100.00
54546;BME280;40444;45.184;9.850;2024-02-26T07:19:14;99912.91;;;8.94;100.00
54546;BME280;40444;45.184;9.850;2024-02-26T07:21:42;99910.66;;;8.99;100.00
54546;BME280;40444;45.184;9.850;2024-02-26T07:24:13;99917.66;;;9.00;100.00
54546;BME280;40444;45.184;9.850;2024-02-26T07:26:42;99913.47;;;8.88;100.00
54546;BME280;40444;45.184;9.850;2024-02-26T07:29:11;99919.78;;;9.06;100.00
54546;BME280;40444;45.184;9.850;2024-02-26T07:31:40;99918.63;;;9.09;100.00
54546;BME280;40444;45.184;9.850;2024-02-26T07:34:09;99918.78;;;9.07;100.00
54546;BME280;40444;45.184;9.850;2024-02-26T07:36:39;99919.88;;;9.15;100.00
54546;BME280;40444;45.184;9.850;2024-02-26T07:39:08;99916.66;;;9.21;100.00
54546;BME280;40444;45.184;9.850;2024-02-26T07:41:36;99915.38;;;9.25;100.00
54546;BME280;40444;45.184;9.850;2024-02-26T07:44:07;99919.78;;;9.06;100.00
54546;BME280;40444;45.184;9.850;2024-02-26T07:46:37;99917.78;;;9.08;100.00
54546;BME280;40444;45.184;9.850;2024-02-26T07:49:05;99922.00;;;9.21;100.00
54546;BME280;40444;45.184;9.850;2024-02-26T07:51:34;99930.41;;;9.26;100.00
54546;BME280;40444;45.184;9.850;2024-02-26T07:54:03;99929.25;;;9.38;100.00
54546;BME280;40444;45.184;9.850;2024-02-26T07:56:32;99924.16;;;9.45;100.00
54546;BME280;40444;45.184;9.850;2024-02-26T07:59:00;99930.38;;;9.35;100.00
54546;BME280;40444;45.184;9.850;2024-02-26T08:01:29;99929.97;;;9.30;100.00
54546;BME280;40444;45.184;9.850;2024-02-26T08:03:57;99931.31;;;9.44;100.00
54546;BME280;40444;45.184;9.850;2024-02-26T08:06:26;99929.25;;;9.38;100.00
54546;BME280;40444;45.184;9.850;2024-02-26T08:08:55;99929.88;;;9.13;100.00
54546;BME280;40444;45.184;9.850;2024-02-26T08:11:24;99918.16;;;9.23;100.00
54546;BME280;40444;45.184;9.850;2024-02-26T08:13:52;99922.13;;;9.19;100.00
54546;BME280;40444;45.184;9.850;2024-02-26T08:16:21;99918.59;;;9.19;100.00
54546;BME280;40444;45.184;9.850;2024-02-26T08:18:50;99909.34;;;9.13;100.00
54546;BME280;40444;45.184;9.850;2024-02-26T08:21:18;99906.50;;;9.15;100.00
54546;BME280;40444;45.184;9.850;2024-02-26T08:23:47;99907.91;;;9.19;100.00
54546;BME280;40444;45.184;9.850;2024-02-26T08:26:15;99907.34;;;9.15;100.00
54546;BME280;40444;45.184;9.850;2024-02-26T08:28:44;99916.97;;;8.98;100.00
54546;BME280;40444;45.184;9.850;2024-02-26T08:31:13;99916.53;;;9.13;100.00
54546;BME280;40444;45.184;9.850;2024-02-26T08:33:42;99905.13;;;9.10;100.00
54546;BME280;40444;45.184;9.850;2024-02-26T08:36:11;99907.47;;;9.23;100.00
54546;BME280;40444;45.184;9.850;2024-02-26T08:38:40;99903.84;;;9.24;100.00
54546;BME280;40444;45.184;9.850;2024-02-26T08:41:08;99896.75;;;9.33;100.00
54546;BME280;40444;45.184;9.850;2024-02-26T08:43:37;99904.03;;;9.41;100.00
54546;BME280;40444;45.184;9.850;2024-02-26T08:46:09;99892.97;;;9.26;100.00
54546;BME280;40444;45.184;9.850;2024-02-26T08:48:39;99895.56;;;9.45;100.00
54546;BME280;40444;45.184;9.850;2024-02-26T08:51:08;99887.44;;;9.37;100.00
54546;BME280;40444;45.184;9.850;2024-02-26T08:53:37;99884.25;;;9.33;100.00
54546;BME280;40444;45.184;9.850;2024-02-26T08:56:10;99885.63;;;9.38;100.00
54546;BME280;40444;45.184;9.850;2024-02-26T08:58:46;99883.66;;;9.40;100.00
54546;BME280;40444;45.184;9.850;2024-02-26T09:01:17;99885.88;;;9.44;100.00
54546;BME280;40444;45.184;9.850;2024-02-26T09:03:46;99882.53;;;9.42;100.00
54546;BME280;40444;45.184;9.850;2024-02-26T09:06:15;99896.47;;;9.36;100.00
54546;BME280;40444;45.184;9.850;2024-02-26T09:08:43;99894.06;;;9.33;100.00
54546;BME280;40444;45.184;9.850;2024-02-26T09:11:12;99902.91;;;9.43;100.00
54546;BME280;40444;45.184;9.850;2024-02-26T09:13:41;99885.22;;;9.32;100.00
54546;BME280;40444;45.184;9.850;2024-02-26T09:16:11;99883.69;;;9.30;100.00
54546;BME280;40444;45.184;9.850;2024-02-26T09:18:40;99886.66;;;9.27;100.00
54546;BME280;40444;45.184;9.850;2024-02-26T09:21:09;99887.59;;;9.35;100.00
54546;BME280;40444;45.184;9.850;2024-02-26T09:23:38;99894.91;;;9.43;100.00
54546;BME280;40444;45.184;9.850;2024-02-26T09:26:06;99885.03;;;9.44;100.00
54546;BME280;40444;45.184;9.850;2024-02-26T09:28:35;99895.34;;;9.39;100.00
54546;BME280;40444;45.184;9.850;2024-02-26T09:31:05;99879.19;;;9.30;100.00
54546;BME280;40444;45.184;9.850;2024-02-26T09:33:35;99881.06;;;9.20;100.00
54546;BME280;40444;45.184;9.850;2024-02-26T09:36:04;99872.19;;;9.20;100.00
54546;BME280;40444;45.184;9.850;2024-02-26T09:38:34;99875.78;;;9.38;100.00
54546;BME280;40444;45.184;9.850;2024-02-26T09:41:22;99878.53;;;9.46;100.00
54546;BME280;40444;45.184;9.850;2024-02-26T09:43:56;99879.56;;;9.35;100.00
54546;BME280;40444;45.184;9.850;2024-02-26T09:46:25;99874.69;;;9.58;100.00
54546;BME280;40444;45.184;9.850;2024-02-26T09:48:54;99876.34;;;9.32;100.00
54546;BME280;40444;45.184;9.850;2024-02-26T09:51:24;99871.44;;;9.27;100.00
54546;BME280;40444;45.184;9.850;2024-02-26T09:53:54;99873.09;;;9.38;100.00
54546;BME280;40444;45.184;9.850;2024-02-26T09:56:25;99866.53;;;9.23;100.00
54546;BME280;40444;45.184;9.850;2024-02-26T09:58:55;99861.91;;;9.15;100.00
54546;BME280;40444;45.184;9.850;2024-02-26T10:01:25;99867.50;;;9.31;100.00
54546;BME280;40444;45.184;9.850;2024-02-26T10:03:56;99863.94;;;9.41;100.00
54546;BME280;40444;45.184;9.850;2024-02-26T10:06:26;99875.84;;;9.46;100.00
54546;BME280;40444;45.184;9.850;2024-02-26T10:08:56;99856.84;;;9.49;100.00
54546;BME280;40444;45.184;9.850;2024-02-26T10:11:27;99869.44;;;9.39;100.00
54546;BME280;40444;45.184;9.850;2024-02-26T10:13:56;99878.69;;;9.45;100.00
54546;BME280;40444;45.184;9.850;2024-02-26T10:16:25;99877.56;;;9.47;100.00
54546;BME280;40444;45.184;9.850;2024-02-26T10:18:54;99879.78;;;9.24;100.00
54546;BME280;40444;45.184;9.850;2024-02-26T10:21:27;99866.75;;;9.39;100.00
54546;BME280;40444;45.184;9.850;2024-02-26T10:23:56;99862.09;;;9.41;100.00
54546;BME280;40444;45.184;9.850;2024-02-26T10:26:24;99867.59;;;9.40;100.00
54546;BME280;40444;45.184;9.850;2024-02-26T10:28:53;99862.97;;;9.59;100.00
54546;BME280;40444;45.184;9.850;2024-02-26T10:31:27;99866.09;;;9.27;100.00
54546;BME280;40444;45.184;9.850;2024-02-26T10:33:55;99869.28;;;9.41;100.00
54546;BME280;40444;45.184;9.850;2024-02-26T10:36:33;99863.81;;;9.42;100.00
54546;BME280;40444;45.184;9.850;2024-02-26T10:39:15;99863.94;;;9.41;100.00
54546;BME280;40444;45.184;9.850;2024-02-26T10:41:46;99865.66;;;9.32;100.00
54546;BME280;40444;45.184;9.850;2024-02-26T10:44:14;99865.09;;;9.38;100.00
54546;BME280;40444;45.184;9.850;2024-02-26T10:46:47;99868.19;;;9.33;100.00
54546;BME280;40444;45.184;9.850;2024-02-26T10:49:18;99872.44;;;9.54;100.00
54546;BME280;40444;45.184;9.850;2024-02-26T10:51:55;99877.84;;;9.44;100.00
54546;BME280;40444;45.184;9.850;2024-02-26T10:54:29;99873.00;;;9.57;100.00
54546;BME280;40444;45.184;9.850;2024-02-26T10:56:59;99873.22;;;9.36;100.00
54546;BME280;40444;45.184;9.850;2024-02-26T10:59:29;99869.22;;;9.23;100.00
54546;BME280;40444;45.184;9.850;2024-02-26T11:02:01;99868.31;;;9.32;100.00
54546;BME280;40444;45.184;9.850;2024-02-26T11:04:30;99863.03;;;9.22;100.00
54546;BME280;40444;45.184;9.850;2024-02-26T11:06:59;99851.94;;;9.17;100.00
54546;BME280;40444;45.184;9.850;2024-02-26T11:09:30;99851.28;;;9.33;100.00
54546;BME280;40444;45.184;9.850;2024-02-26T11:12:00;99836.50;;;9.01;100.00
54546;BME280;40444;45.184;9.850;2024-02-26T11:14:30;99830.03;;;9.04;100.00
54546;BME280;40444;45.184;9.850;2024-02-26T11:17:00;99822.34;;;8.91;100.00
54546;BME280;40444;45.184;9.850;2024-02-26T11:19:30;99829.78;;;8.97;100.00
54546;BME280;40444;45.184;9.850;2024-02-26T11:22:04;99825.94;;;9.09;100.00
54546;BME280;40444;45.184;9.850;2024-02-26T11:24:49;99825.88;;;9.19;100.00
54546;BME280;40444;45.184;9.850;2024-02-26T11:27:19;99827.59;;;9.10;100.00
54546;BME280;40444;45.184;9.850;2024-02-26T11:29:53;99829.75;;;9.07;100.00
54546;BME280;40444;45.184;9.850;2024-02-26T11:32:22;99827.47;;;9.12;100.00
54546;BME280;40444;45.184;9.850;2024-02-26T11:34:51;99820.09;;;9.24;100.00
54546;BME280;40444;45.184;9.850;2024-02-26T11:37:20;99827.72;;;9.19;100.00
54546;BME280;40444;45.184;9.850;2024-02-26T11:39:51;99841.66;;;9.22;100.00
54546;BME280;40444;45.184;9.850;2024-02-26T11:42:24;99836.47;;;9.21;100.00
54546;BME280;40444;45.184;9.850;2024-02-26T11:44:54;99837.13;;;9.23;100.00
54546;BME280;40444;45.184;9.850;2024-02-26T11:47:24;99843.59;;;9.30;100.00
54546;BME280;40444;45.184;9.850;2024-02-26T11:49:53;99848.94;;;9.30;100.00
54546;BME280;40444;45.184;9.850;2024-02-26T11:52:22;99832.44;;;9.07;100.00
54546;BME280;40444;45.184;9.850;2024-02-26T11:54:53;99830.28;;;9.20;100.00
54546;BME280;40444;45.184;9.850;2024-02-26T11:57:26;99823.53;;;9.16;100.00
54546;BME280;40444;45.184;9.850;2024-02-26T12:00:16;99824.44;;;8.97;100.00
54546;BME280;40444;45.184;9.850;2024-02-26T12:05:31;99816.97;;;9.01;100.00
54546;BME280;40444;45.184;9.850;2024-02-26T12:08:03;99807.34;;;9.18;100.00
54546;BME280;40444;45.184;9.850;2024-02-26T12:10:39;99797.47;;;9.18;100.00
54546;BME280;40444;45.184;9.850;2024-02-26T12:13:13;99787.63;;;9.19;100.00
54546;BME280;40444;45.184;9.850;2024-02-26T12:15:57;99778.81;;;9.36;100.00
54546;BME280;40444;45.184;9.850;2024-02-26T12:18:26;99775.22;;;9.27;100.00
54546;BME280;40444;45.184;9.850;2024-02-26T12:20:59;99780.44;;;9.29;100.00
54546;BME280;40444;45.184;9.850;2024-02-26T12:23:32;99789.06;;;9.13;100.00
54546;BME280;40444;45.184;9.850;2024-02-26T12:26:01;99785.78;;;9.29;100.00
54546;BME280;40444;45.184;9.850;2024-02-26T12:28:35;99792.09;;;9.28;100.00
54546;BME280;40444;45.184;9.850;2024-02-26T12:31:04;99791.63;;;9.32;100.00
54546;BME280;40444;45.184;9.850;2024-02-26T12:33:32;99791.50;;;9.34;100.00
54546;BME280;40444;45.184;9.850;2024-02-26T12:36:02;99790.63;;;9.16;100.00
54546;BME280;40444;45.184;9.850;2024-02-26T12:38:31;99792.41;;;9.25;100.00
54546;BME280;40444;45.184;9.850;2024-02-26T12:41:01;99799.63;;;9.42;100.00
54546;BME280;40444;45.184;9.850;2024-02-26T12:43:30;99801.53;;;9.22;100.00
54546;BME280;40444;45.184;9.850;2024-02-26T12:46:03;99798.97;;;9.03;100.00
54546;BME280;40444;45.184;9.850;2024-02-26T12:48:31;99790.13;;;9.30;100.00
54546;BME280;40444;45.184;9.850;2024-02-26T12:51:00;99792.44;;;9.15;100.00
54546;BME280;40444;45.184;9.850;2024-02-26T12:53:28;99786.22;;;9.24;100.00
54546;BME280;40444;45.184;9.850;2024-02-26T12:55:57;99769.88;;;9.27;100.00
54546;BME280;40444;45.184;9.850;2024-02-26T12:58:26;99774.81;;;9.22;100.00
54546;BME280;40444;45.184;9.850;2024-02-26T13:00:56;99763.22;;;9.31;100.00
54546;BME280;40444;45.184;9.850;2024-02-26T13:03:26;99762.59;;;9.20;100.00
54546;BME280;40444;45.184;9.850;2024-02-26T13:05:56;99770.00;;;9.53;100.00
54546;BME280;40444;45.184;9.850;2024-02-26T13:08:24;99773.13;;;9.49;100.00
54546;BME280;40444;45.184;9.850;2024-02-26T13:10:53;99772.63;;;9.35;100.00
54546;BME280;40444;45.184;9.850;2024-02-26T13:13:22;99761.56;;;9.30;100.00